Etusivu
METAR-TAF:

METAR-TAF

Lentoasemat :

Chlef, Algeria

Leveyspiiri: 36-13N, Pituuspiiri: 001-20E, korkeus merenpinnasta: 143 m

Tämänhetkinen sää

Tämä raportti tehtiin 1 tunti ja 7 minuuttia sitten, kello 08.00 UTC
Tuuli 8 kn idästä
Lämpötila 17°C
Kosteus 39%
Ilmanpaine 1013 hPa
Näkyvyys 10 km tai enemmän
Muutamia pilviä 2600 ft:n korkeudessa
Hajanaisia pilviä 10000 ft:n korkeudessa

METAR: DAOI 210800Z 08008KT 9999 FEW026 SCT100 17/03 Q1013

Aika: 10:07 (09:07 UTC)

Sääennuste

Tämä raportti tehtiin 4 tuntia ja 7 minuuttia sitten, kello 05.00 UTC
Ennuste voimassa 21. päivästä klo 06 UTC - 22. päivään klo 06 UTC
Tuuli 2 kn eri suunnista
Näkyvyys 10 km tai enemmän
ei pilviä alle 1500 m:ssä eikä cumulonimbus-pilviä
Tulossa
21. päivästä klo 12 UTC - 21. päivään klo 15 UTC
Tuuli 12 kn koillisesta

TAF: DAOI 210500Z 2106/2206 VRB02KT CAVOK BECMG 2112/2115 04012KT

Säähavainnot ja -ennusteet yli 4000 lentoasemalta (METAR- ja TAF-raportit).

Käytössä olevat sääasemat on merkitty karttaan keltaisilla ja punaisilla pisteillä.

Aseta hiiri pisteen päälle nähdäksesi sääaseman nimen.

Klikkaa sitten nähdäksesi säähavainnot ja -ennusteet.

Kartan vaihtaminen: klikkaa mustalla rastilla varustettuja vihreitä pisteitä, niin voit zoomata sisään; viivalla varustettua vihreää pistettä, niin voit zoomata ulos tai vihreitä nuolia, niin pääset viereisille kartoille.


METAR-TAF: